AirNav   Everest Fuels
 
 1313 users online  

LA39 Chalkley Heliport
Bell City, Louisiana, USA

GOING TO BELL CITY?


FAA INFORMATION EFFECTIVE 08 SEPTEMBER 2022

Location

FAA Identifier: LA39
Lat/Long: 30-00-38.5500N 093-03-04.7600W
30-00.642500N 093-03.079333W
30.0107083,-93.0513222
(estimated)
Elevation: 5 ft. / 2 m (estimated)
Variation: 04E (1990)
From city: 13 miles W of BELL CITY, LA
Time zone: UTC -5 (UTC -6 during Standard Time)
Zip code: 70630

Heliport Operations

Heliport use: Private use. Permission required prior to landing
Activation date: 08/1994
Control tower: no
ARTCC: HOUSTON CENTER
FSS: DE RIDDER FLIGHT SERVICE STATION
Attendance: IREG
Wind indicator: yes
Segmented circle: no

Heliport Communications

WX ASOS at LCH (11 nm NW): PHONE 337-477-3371
WX AWOS-3 at CWF (13 nm N): 120.0 (337-436-3452)
WX AWOS-3PT at UXL (18 nm NW): 118.175 (337-558-5321)

Nearby radio navigation aids

VOR radial/distance  VOR name  Freq  Var
LCHr153/8.3LAKE CHARLES VORTAC113.4007E

 
NDB name  Hdg/Dist  Freq  Var  ID
SULPHUR116/22.227804EAUR .- ..- .-.

Heliport Services

Runway Information

Helipad H1

Dimensions: 35 x 35 ft. / 11 x 11 m
Surface: concrete
Traffic pattern: leftleft

Heliport Ownership and Management from official FAA records

Ownership: Privately-owned
Owner: EXXON CO USA
PO BOX 61707
NEW ORLEANS, LA 70161-1707
Phone 504-561-4314
Manager: ROBERT G WILLIAMS
PO BOX 61707
NEW ORLEANS, LA 70161-1707
Phone 504-561-4314

Heliport Operational Statistics

Aircraft based on the field: 1
Helicopters: 1
    

Additional Remarks

A52-H1 30 FT PLINE 150 FT SOUTH; 5 FT FENCE 100 FT SOUTH & WEST; 25 FT BLDG 200 FT EAST.
FOR CD CTC LAKE CHARLES APCH AT 337-480-3103, WHEN APCH CLSD CTC HOUSTON ARTCC AT 281-230-5622.

Instrument Procedures

There are no published instrument procedures at LA39.

Some nearby airports with instrument procedures:

KLCH - Lake Charles Regional Airport (11 nm NW)
KCWF - Chennault International Airport (13 nm N)
6R1 - Welsh Airport (18 nm NE)
KUXL - Southland Field Airport (18 nm NW)
3R7 - Jennings Airport (24 nm NE)
 
Loc | Ops | Rwys | IFR | FBO | Links
Com | Nav | Svcs | Stats | Notes
Area around LA39 (Chalkley Heliport)
 
Road maps at: MapQuest Bing Google
 
Aerial photo
No photo
 
Sectional chart

 
Airport distance calculator
Flying to Chalkley Heliport? Find the distance to fly.

From to LA39

Sunrise and sunset
Times for 28-Sep-2022
 Local
(UTC-5)
 Zulu
(UTC)
Morning civil twilight06:4111:41
Sunrise07:0512:05
Sunset19:0100:01
Evening civil twilight19:2500:25

Current date and time
Zulu (UTC)  29-Sep-2022 01:52:12
Local (UTC-5)  28-Sep-2022 20:52:12
 
METAR
KLCH 
11nm NW 
290053Z 05005KT 10SM CLR 22/09 A3015 RMK AO2 SLP217 T02220094
KCWF 
13nm N 
290050Z 02004KT 10SM SKC 24/10 A3015
KUXL 
18nm NW 
290135Z AUTO 01003KT 10SM CLR 23/08 A3017 RMK AO2 T02340080
TAF
KLCH 
11nm NW 
281723Z 2818/2918 04010G15KT P6SM SKC FM290000 03008KT P6SM SKC
NOTAMs
Click for the latest NOTAMs
NOTAMs are issued by the DoD/FAA and will open in a separate window not controlled by AirNav.

 

 
 

Would you like to see your business listed on this page?

 If your business provides an interesting product or service to pilots, flight crews, aircraft, or users of the Chalkley Heliport, you should consider listing it here.  To start the listing process, click on the button below
 
Add a business
 

Other Pages about Chalkley Heliport

Update a link
 
Copyright © AirNav, LLC. All rights reserved. Privacy Policy  Contact